Time;durP1;ratioP1;P1;durP2;ratioP2;P2;SDS_P1;SDS_P2;PMS_P1;PMS_P2;Temp;Humidity;BMP_temperature;BMP_pressure;BME280_temperature;BME280_humidity;BME280_pressure;Samples;Min_cycle;Max_cycle;Signal;HPM_P1;HPM_P2
2022/03/24 00:02:11;;;;;;;7.60;2.35;;;19.40;99.90;;;;;;5053474;28;20029;-78
2022/03/24 00:04:39;;;;;;;6.90;2.17;;;19.50;99.90;;;;;;5051954;28;20506;-80
2022/03/24 00:07:07;;;;;;;7.82;2.25;;;19.60;99.90;;;;;;5053306;28;20474;-78
2022/03/24 00:09:35;;;;;;;7.28;2.05;;;19.60;99.90;;;;;;5052633;28;20021;-80
2022/03/24 00:12:02;;;;;;;6.35;2.03;;;19.60;99.90;;;;;;5051692;28;20047;-81
2022/03/24 00:14:30;;;;;;;7.47;2.47;;;19.60;99.90;;;;;;5052981;28;20017;-79
2022/03/24 00:16:57;;;;;;;6.35;2.20;;;19.70;99.90;;;;;;5053086;28;20052;-80
2022/03/24 00:19:26;;;;;;;6.40;1.98;;;19.70;99.90;;;;;;5053062;28;20107;-80
2022/03/24 00:21:54;;;;;;;8.00;2.40;;;19.70;99.90;;;;;;5052892;28;20029;-82
2022/03/24 00:24:21;;;;;;;8.63;1.95;;;19.70;99.90;;;;;;5051889;28;20037;-81
2022/03/24 00:26:49;;;;;;;7.15;1.60;;;19.70;99.90;;;;;;5052725;28;20469;-81
2022/03/24 00:29:16;;;;;;;9.15;2.22;;;19.70;99.90;;;;;;5053212;28;20017;-82
2022/03/24 00:31:43;;;;;;;6.72;2.00;;;19.70;99.90;;;;;;5052688;28;20537;-79
2022/03/24 00:34:11;;;;;;;10.02;2.38;;;19.60;99.90;;;;;;5052753;28;20052;-80
2022/03/24 00:36:38;;;;;;;11.65;2.35;;;19.70;99.90;;;;;;5052543;28;20024;-78
2022/03/24 00:39:06;;;;;;;11.27;2.50;;;19.60;99.90;;;;;;5051252;28;20033;-80
2022/03/24 00:41:35;;;;;;;12.98;2.70;;;19.50;99.90;;;;;;5052375;28;20028;-79
2022/03/24 00:44:03;;;;;;;9.98;2.10;;;19.50;99.90;;;;;;5051205;28;20021;-80
2022/03/24 00:46:31;;;;;;;7.05;2.35;;;19.60;99.90;;;;;;5051175;28;20032;-79
2022/03/24 00:48:58;;;;;;;8.25;2.40;;;19.60;99.90;;;;;;5051189;28;20424;-80
2022/03/24 00:51:26;;;;;;;7.53;2.30;;;19.60;99.90;;;;;;5051119;28;20021;-80
2022/03/24 00:53:53;;;;;;;10.00;3.03;;;19.70;99.90;;;;;;5052512;28;20017;-80
2022/03/24 00:56:21;;;;;;;10.80;2.80;;;19.70;99.90;;;;;;5052477;28;20100;-80
2022/03/24 00:58:49;;;;;;;11.32;3.15;;;19.60;99.90;;;;;;5052597;28;20021;-78
2022/03/24 01:01:16;;;;;;;10.18;2.80;;;19.70;99.90;;;;;;5050915;28;20024;-80
2022/03/24 01:03:44;;;;;;;9.23;3.13;;;19.80;99.90;;;;;;5052223;28;20116;-78
2022/03/24 01:06:16;;;;;;;8.30;2.20;;;19.80;99.90;;;;;;5052193;28;20102;-78
2022/03/24 01:08:44;;;;;;;7.32;1.92;;;19.80;99.90;;;;;;5050253;28;20059;-79
2022/03/24 01:11:12;;;;;;;6.35;2.13;;;19.80;99.90;;;;;;5050787;28;20025;-78
2022/03/24 01:13:40;;;;;;;7.13;2.20;;;19.70;99.90;;;;;;5052169;28;20021;-80
2022/03/24 01:16:08;;;;;;;7.45;2.40;;;19.80;99.90;;;;;;5050748;28;20029;-82
2022/03/24 01:18:37;;;;;;;8.18;1.95;;;19.90;99.90;;;;;;5052550;28;20385;-79
2022/03/24 01:21:08;;;;;;;11.77;2.42;;;19.90;99.90;;;;;;5055103;28;20026;-82
2022/03/24 01:23:35;;;;;;;8.90;2.58;;;20.00;99.90;;;;;;5052308;28;20033;-80
2022/03/24 01:26:06;;;;;;;7.68;2.03;;;19.90;99.90;;;;;;5050844;28;20033;-80
2022/03/24 01:28:35;;;;;;;8.55;2.40;;;20.10;99.90;;;;;;5052216;28;20032;-80
2022/03/24 01:31:03;;;;;;;10.63;2.63;;;20.10;99.90;;;;;;5050755;28;20017;-80
2022/03/24 01:33:30;;;;;;;7.50;2.20;;;20.00;99.90;;;;;;5051960;28;20048;-79
2022/03/24 01:35:58;;;;;;;6.03;1.83;;;19.90;99.90;;;;;;5050637;28;20033;-79
2022/03/24 01:38:25;;;;;;;7.30;2.10;;;20.00;99.90;;;;;;5050569;28;20025;-79
2022/03/24 01:40:53;;;;;;;9.65;2.47;;;19.90;99.90;;;;;;5050865;28;20025;-79
2022/03/24 01:43:20;;;;;;;8.95;2.28;;;19.90;99.90;;;;;;5052275;28;20022;-79
2022/03/24 01:45:49;;;;;;;7.13;2.65;;;19.90;99.90;;;;;;5052058;28;20439;-79
2022/03/24 01:48:17;;;;;;;8.13;2.80;;;19.80;99.90;;;;;;5051810;28;20028;-80
2022/03/24 01:50:45;;;;;;;7.05;2.67;;;19.80;99.90;;;;;;5051913;28;20020;-79
2022/03/24 01:53:13;;;;;;;9.15;2.85;;;19.70;99.90;;;;;;5051700;28;20047;-79
2022/03/24 01:55:42;;;;;;;7.95;2.30;;;19.70;99.90;;;;;;5050607;28;20474;-79
2022/03/24 01:58:11;;;;;;;7.43;2.20;;;19.80;99.90;;;;;;5051627;28;20477;-79
2022/03/24 02:00:40;;;;;;;11.23;2.63;;;19.90;99.90;;;;;;5051617;28;20039;-79
2022/03/24 02:03:07;;;;;;;12.70;2.80;;;19.90;99.90;;;;;;5049953;28;20045;-79
2022/03/24 02:05:38;;;;;;;5.68;2.25;;;19.80;99.90;;;;;;5051677;28;20488;-80
2022/03/24 02:08:05;;;;;;;7.45;2.15;;;19.90;99.90;;;;;;5051741;28;20032;-80
2022/03/24 02:10:35;;;;;;;9.23;2.53;;;20.00;99.90;;;;;;5050372;28;20033;-80
2022/03/24 02:13:04;;;;;;;9.68;2.28;;;20.00;99.90;;;;;;5051604;28;20033;-79
2022/03/24 02:15:33;;;;;;;7.90;2.20;;;20.00;99.90;;;;;;5051642;28;20032;-79
2022/03/24 02:18:01;;;;;;;7.88;1.70;;;20.00;99.90;;;;;;5051583;28;20509;-79
2022/03/24 02:20:33;;;;;;;7.88;1.92;;;20.00;99.90;;;;;;5055267;28;20060;-79
2022/03/24 02:23:01;;;;;;;7.45;2.08;;;20.10;99.90;;;;;;5055194;28;20033;-79
2022/03/24 02:25:32;;;;;;;7.50;2.50;;;20.10;99.90;;;;;;5055453;28;20369;-80
2022/03/24 02:28:02;;;;;;;8.18;2.60;;;20.20;99.90;;;;;;5053729;28;20385;-80
2022/03/24 02:30:30;;;;;;;6.78;2.00;;;20.20;99.90;;;;;;5055135;28;20538;-79
2022/03/24 02:32:58;;;;;;;5.97;2.15;;;20.20;99.90;;;;;;5054952;28;20029;-80
2022/03/24 02:35:25;;;;;;;6.88;2.05;;;20.40;99.90;;;;;;5054942;28;20079;-79
2022/03/24 02:37:53;;;;;;;7.03;2.13;;;20.40;99.90;;;;;;5053517;28;20029;-78
2022/03/24 02:40:21;;;;;;;5.93;2.03;;;20.30;99.90;;;;;;5052904;28;20098;-80
2022/03/24 02:42:48;;;;;;;6.25;2.03;;;20.30;99.90;;;;;;5053598;28;20072;-80
2022/03/24 02:45:16;;;;;;;5.90;2.22;;;20.30;99.90;;;;;;5053291;28;20021;-80
2022/03/24 02:47:45;;;;;;;6.00;2.00;;;20.30;99.90;;;;;;5053342;28;20021;-79
2022/03/24 02:50:13;;;;;;;6.95;1.90;;;20.30;99.90;;;;;;5053240;28;20028;-80
2022/03/24 02:52:41;;;;;;;6.47;1.73;;;20.30;99.90;;;;;;5053441;28;20040;-79
2022/03/24 02:55:09;;;;;;;6.57;1.52;;;20.20;99.90;;;;;;5054502;28;20486;-80
2022/03/24 02:57:37;;;;;;;7.53;1.88;;;20.30;99.90;;;;;;5054685;28;20028;-79
2022/03/24 03:00:06;;;;;;;7.82;2.15;;;20.40;99.90;;;;;;5053485;28;20033;-79
2022/03/24 03:02:33;;;;;;;8.52;2.28;;;20.50;99.90;;;;;;5054539;28;20537;-81
2022/03/24 03:05:01;;;;;;;8.70;2.50;;;20.50;99.90;;;;;;5054888;28;20024;-80
2022/03/24 03:07:28;;;;;;;9.43;2.20;;;20.60;99.90;;;;;;5053363;28;20025;-79
2022/03/24 03:09:56;;;;;;;8.05;1.95;;;20.70;99.90;;;;;;5054179;28;20028;-80
2022/03/24 03:12:26;;;;;;;9.05;2.03;;;20.70;99.90;;;;;;5052778;28;20028;-80
2022/03/24 03:14:56;;;;;;;6.20;1.85;;;20.80;99.90;;;;;;5054367;28;20122;-79
2022/03/24 03:17:23;;;;;;;11.02;2.03;;;20.60;99.90;;;;;;5054327;28;20036;-81
2022/03/24 03:19:51;;;;;;;8.48;2.35;;;20.80;99.90;;;;;;5054017;28;20106;-79
2022/03/24 03:22:18;;;;;;;7.35;2.13;;;20.70;99.90;;;;;;5054119;28;20396;-78
2022/03/24 03:24:47;;;;;;;7.70;1.80;;;20.80;99.90;;;;;;5052824;28;20071;-80
2022/03/24 03:27:15;;;;;;;15.45;2.58;;;20.90;99.90;;;;;;5036359;28;20043;-81
2022/03/24 03:29:43;;;;;;;9.45;2.10;;;20.90;99.90;;;;;;5052171;28;20044;-80
2022/03/24 03:32:12;;;;;;;8.02;1.55;;;20.90;99.90;;;;;;5052174;28;20037;-79
2022/03/24 03:34:41;;;;;;;6.88;1.65;;;21.00;99.90;;;;;;5052637;28;20060;-81
2022/03/24 03:37:09;;;;;;;10.68;2.20;;;21.20;99.90;;;;;;5054714;28;20390;-80
2022/03/24 03:39:37;;;;;;;6.00;2.13;;;21.40;99.90;;;;;;5057016;28;20057;-79
2022/03/24 03:42:05;;;;;;;8.48;2.15;;;21.60;99.90;;;;;;5055680;28;20032;-80
2022/03/24 03:44:32;;;;;;;10.30;2.33;;;21.60;99.90;;;;;;5040069;28;20025;-79
2022/03/24 03:47:02;;;;;;;9.32;2.03;;;21.60;99.90;;;;;;5059676;28;20417;-80
2022/03/24 03:49:30;;;;;;;8.18;2.25;;;21.80;99.90;;;;;;5064405;28;20029;-78
2022/03/24 03:51:57;;;;;;;5.35;1.60;;;22.00;99.90;;;;;;5056398;28;20052;-79
2022/03/24 03:54:26;;;;;;;7.72;1.48;;;22.20;99.90;;;;;;5058267;28;20052;-79
2022/03/24 03:56:54;;;;;;;8.70;2.35;;;22.20;99.90;;;;;;5052653;28;20386;-80
2022/03/24 03:59:21;;;;;;;7.22;1.60;;;22.40;99.90;;;;;;5053954;28;20061;-77
2022/03/24 04:01:48;;;;;;;6.93;1.52;;;22.40;99.90;;;;;;5054051;28;20041;-79
2022/03/24 04:04:16;;;;;;;7.30;1.92;;;22.50;99.90;;;;;;5055528;28;20090;-78
2022/03/24 04:06:43;;;;;;;5.93;1.30;;;22.70;99.90;;;;;;5055642;28;20029;-78
2022/03/24 04:09:10;;;;;;;7.07;1.25;;;22.80;99.90;;;;;;5121301;22;20037;-78
2022/03/24 04:11:38;;;;;;;5.57;1.42;;;22.70;99.90;;;;;;5063554;28;20077;-78
2022/03/24 04:14:07;;;;;;;5.53;1.50;;;22.30;99.90;;;;;;5055344;28;20111;-79
2022/03/24 04:16:34;;;;;;;7.25;1.52;;;22.20;99.90;;;;;;5052869;28;20020;-79
2022/03/24 04:19:05;;;;;;;7.65;1.40;;;22.10;99.90;;;;;;5051468;28;20028;-79
2022/03/24 04:21:31;;;;;;;;;;;22.00;99.90;;;;;;5053291;28;20017;-78
2022/03/24 04:23:59;;;;;;;5.78;1.20;;;22.10;99.90;;;;;;5051994;28;20539;-78
2022/03/24 04:26:26;;;;;;;10.95;2.10;;;22.10;99.90;;;;;;5052015;28;20029;-79
2022/03/24 04:28:54;;;;;;;7.25;2.00;;;22.10;99.90;;;;;;5053998;28;20432;-79
2022/03/24 04:31:22;;;;;;;7.95;1.90;;;22.30;99.90;;;;;;5053270;28;20473;-79
2022/03/24 04:33:50;;;;;;;6.57;1.45;;;22.40;99.90;;;;;;5052621;28;20392;-79
2022/03/24 04:36:17;;;;;;;6.75;1.50;;;22.60;99.90;;;;;;5054395;28;20022;-78
2022/03/24 04:38:45;;;;;;;6.38;1.80;;;22.80;99.90;;;;;;5052419;28;20025;-78
2022/03/24 04:41:13;;;;;;;6.35;1.33;;;23.00;99.90;;;;;;5053664;28;20055;-79
2022/03/24 04:43:40;;;;;;;5.70;1.20;;;23.10;99.90;;;;;;5052678;28;20021;-79
2022/03/24 04:46:08;;;;;;;5.05;1.27;;;23.10;99.90;;;;;;5051775;28;20036;-79
2022/03/24 04:48:38;;;;;;;7.57;1.52;;;23.00;99.90;;;;;;5051884;28;20025;-79
2022/03/24 04:51:06;;;;;;;6.30;1.45;;;22.90;99.90;;;;;;5051565;28;20017;-80
2022/03/24 04:53:35;;;;;;;6.85;1.20;;;22.80;99.90;;;;;;5052847;28;20021;-78
2022/03/24 04:56:02;;;;;;;7.72;1.50;;;22.70;99.90;;;;;;5052545;28;20047;-79
2022/03/24 04:58:30;;;;;;;7.03;1.65;;;22.70;99.90;;;;;;5051021;28;20033;-79
2022/03/24 05:00:58;;;;;;;5.50;1.27;;;22.50;99.90;;;;;;5051784;28;20033;-80
2022/03/24 05:03:25;;;;;;;6.55;1.35;;;22.40;99.90;;;;;;5051202;28;20021;-80
2022/03/24 05:05:54;;;;;;;5.95;1.48;;;22.50;99.90;;;;;;5053186;28;20032;-81
2022/03/24 05:08:22;;;;;;;8.13;1.67;;;22.40;99.90;;;;;;5055512;28;20051;-80
2022/03/24 05:10:49;;;;;;;6.55;1.30;;;22.40;99.90;;;;;;5072626;28;20035;-79
2022/03/24 05:13:16;;;;;;;6.32;1.30;;;22.70;99.90;;;;;;5055383;28;20060;-81
2022/03/24 05:15:44;;;;;;;8.88;1.48;;;22.60;99.90;;;;;;5072654;28;20059;-79
2022/03/24 05:18:11;;;;;;;6.10;1.05;;;22.60;99.90;;;;;;5054848;28;20024;-79
2022/03/24 05:20:38;;;;;;;8.60;1.67;;;22.50;99.90;;;;;;5055545;28;20025;-81
2022/03/24 05:23:06;;;;;;;7.25;1.77;;;22.50;99.90;;;;;;5073429;28;20021;-80
2022/03/24 05:25:35;;;;;;;6.30;1.65;;;22.70;99.90;;;;;;5072974;28;20095;-79
2022/03/24 05:28:04;;;;;;;8.10;1.60;;;22.70;99.90;;;;;;5072662;28;20051;-79
2022/03/24 05:30:32;;;;;;;6.30;1.40;;;22.50;99.90;;;;;;5059159;28;20370;-81
2022/03/24 05:32:59;;;;;;;5.70;1.52;;;22.50;99.90;;;;;;5064886;28;20031;-80
2022/03/24 05:35:29;;;;;;;4.97;1.08;;;22.60;99.90;;;;;;5055378;28;20431;-78
2022/03/24 05:37:57;;;;;;;5.45;1.40;;;22.80;99.90;;;;;;5038005;28;20063;-79
2022/03/24 05:40:24;;;;;;;8.77;1.42;;;22.80;99.90;;;;;;5053985;28;20032;-79
2022/03/24 05:42:52;;;;;;;9.38;1.92;;;22.60;99.90;;;;;;5053874;28;20119;-80
2022/03/24 05:45:19;;;;;;;7.38;1.70;;;22.40;99.90;;;;;;5054373;28;20075;-79
2022/03/24 05:47:47;;;;;;;5.85;1.63;;;22.40;99.90;;;;;;5054046;28;20017;-79
2022/03/24 05:50:14;;;;;;;7.38;1.60;;;22.30;99.90;;;;;;5055200;28;20031;-78
2022/03/24 05:52:43;;;;;;;8.60;1.85;;;22.20;99.90;;;;;;5073137;28;20031;-78
2022/03/24 05:55:10;;;;;;;7.00;1.48;;;22.30;99.90;;;;;;5057751;28;20079;-79
2022/03/24 05:57:41;;;;;;;5.03;1.70;;;22.40;99.90;;;;;;5057531;28;20020;-79
2022/03/24 06:00:08;;;;;;;;;;;22.50;99.90;;;;;;5075954;28;20079;-79
2022/03/24 06:02:36;;;;;;;8.27;1.70;;;22.50;99.90;;;;;;5062678;28;19912;-79
2022/03/24 06:05:12;;;;;;;7.15;1.63;;;22.20;99.90;;;;;;5059106;28;20492;-79
2022/03/24 06:07:40;;;;;;;6.30;1.95;;;21.90;99.90;;;;;;5058599;28;20029;-79
2022/03/24 06:10:10;;;;;;;9.40;2.42;;;22.10;99.90;;;;;;5075438;28;20063;-80
2022/03/24 06:12:38;;;;;;;6.75;1.58;;;22.00;99.90;;;;;;5075497;28;20031;-79
2022/03/24 06:15:07;;;;;;;8.60;1.75;;;22.00;99.90;;;;;;5040570;28;20610;-79
2022/03/24 06:17:35;;;;;;;7.55;1.40;;;22.00;99.90;;;;;;5058267;28;20035;-80
2022/03/24 06:20:03;;;;;;;7.05;1.25;;;22.00;99.90;;;;;;5076928;28;20468;-79
2022/03/24 06:22:31;;;;;;;4.68;1.48;;;21.90;99.90;;;;;;5076289;28;20074;-79
2022/03/24 06:24:58;;;;;;;7.35;1.60;;;21.90;99.90;;;;;;5058650;28;20025;-79
2022/03/24 06:27:27;;;;;;;5.43;1.17;;;21.90;99.90;;;;;;5059747;28;20148;-80
2022/03/24 06:29:54;;;;;;;6.30;1.05;;;21.90;99.90;;;;;;5059765;28;20035;-78
2022/03/24 06:32:22;;;;;;;4.88;1.30;;;21.80;99.90;;;;;;5078433;28;20052;-80
2022/03/24 06:34:51;;;;;;;6.45;1.80;;;21.80;99.90;;;;;;5079266;28;20063;-80
2022/03/24 06:37:18;;;;;;;5.38;1.10;;;21.80;99.90;;;;;;5082098;28;20056;-79
2022/03/24 06:39:45;;;;;;;5.03;1.27;;;21.70;99.90;;;;;;5075588;28;20104;-81
2022/03/24 06:42:13;;;;;;;9.60;1.67;;;21.70;99.90;;;;;;5075050;28;20020;-80
2022/03/24 06:44:40;;;;;;;6.72;1.70;;;21.60;99.90;;;;;;5056467;28;20032;-79
2022/03/24 06:47:09;;;;;;;5.22;1.40;;;21.60;99.90;;;;;;5074376;28;20020;-80
2022/03/24 06:49:36;;;;;;;7.82;1.40;;;21.70;99.90;;;;;;5074411;28;20389;-81
2022/03/24 06:52:04;;;;;;;6.65;2.05;;;21.60;99.90;;;;;;5074322;28;20021;-80
2022/03/24 06:54:31;;;;;;;6.07;1.38;;;21.50;99.90;;;;;;5039914;28;20069;-80
2022/03/24 06:56:59;;;;;;;6.55;1.67;;;21.60;99.90;;;;;;5056196;28;20027;-80
2022/03/24 06:59:26;;;;;;;6.82;1.40;;;21.60;99.90;;;;;;5056969;28;20028;-80
2022/03/24 07:01:54;;;;;;;7.43;1.50;;;21.50;99.90;;;;;;5074155;28;20030;-80
2022/03/24 07:04:21;;;;;;;5.38;1.75;;;21.40;99.90;;;;;;5074041;28;20025;-79
2022/03/24 07:06:48;;;;;;;6.65;1.50;;;21.30;99.90;;;;;;5055398;28;20027;-80
2022/03/24 07:09:15;;;;;;;5.15;1.00;;;21.30;99.90;;;;;;5056349;28;20098;-81
2022/03/24 07:11:43;;;;;;;6.13;1.20;;;21.30;99.90;;;;;;5057404;28;20025;-80
2022/03/24 07:14:10;;;;;;;6.40;1.13;;;21.30;99.90;;;;;;5075164;28;20096;-81
2022/03/24 07:16:38;;;;;;;5.53;1.42;;;21.30;99.90;;;;;;5075434;28;20489;-80
2022/03/24 07:19:06;;;;;;;7.13;1.00;;;21.20;99.90;;;;;;5061544;28;20020;-81
2022/03/24 07:21:34;;;;;;;8.32;1.60;;;20.90;99.90;;;;;;5079157;28;20021;-78
2022/03/24 07:24:01;;;;;;;4.13;1.15;;;20.70;99.90;;;;;;5075567;28;20104;-78
2022/03/24 07:26:29;;;;;;;5.00;1.00;;;20.60;99.90;;;;;;5073902;28;20028;-77
2022/03/24 07:28:56;;;;;;;4.82;1.52;;;20.40;99.90;;;;;;5056521;28;20077;-79
2022/03/24 07:31:24;;;;;;;4.15;1.20;;;20.20;99.90;;;;;;5074132;28;20409;-76
2022/03/24 07:33:53;;;;;;;4.43;1.13;;;20.00;99.90;;;;;;5055976;28;20066;-78
2022/03/24 07:36:24;;;;;;;4.70;1.00;;;19.90;99.90;;;;;;5073541;28;20020;-78
2022/03/24 07:38:54;;;;;;;5.15;1.55;;;19.70;99.90;;;;;;5073977;28;20032;-78
2022/03/24 07:41:23;;;;;;;5.97;1.58;;;19.70;99.90;;;;;;5074503;28;20030;-77
2022/03/24 07:43:51;;;;;;;5.95;1.67;;;19.60;99.90;;;;;;5073464;28;20384;-77
2022/03/24 07:46:18;;;;;;;8.95;1.50;;;19.50;99.90;;;;;;5073149;28;20025;-77
2022/03/24 07:48:49;;;;;;;7.88;1.75;;;19.40;99.90;;;;;;5073311;28;20496;-78
2022/03/24 07:51:16;;;;;;;;;;;19.40;99.90;;;;;;5073698;28;20432;-78
2022/03/24 07:53:50;;;;;;;6.35;1.73;;;19.40;99.90;;;;;;5055199;28;19974;-79
2022/03/24 07:56:19;;;;;;;5.68;1.33;;;19.30;99.90;;;;;;5055107;28;20456;-78
2022/03/24 07:58:46;;;;;;;5.70;1.70;;;19.20;99.90;;;;;;5054900;28;20039;-77
2022/03/24 08:01:14;;;;;;;6.18;1.55;;;19.10;99.90;;;;;;5072997;28;20031;-78
2022/03/24 08:03:43;;;;;;;4.10;1.38;;;19.00;99.90;;;;;;5054866;28;20032;-78
2022/03/24 08:06:10;;;;;;;9.93;1.98;;;19.00;99.90;;;;;;5072846;28;20025;-77
2022/03/24 08:08:38;;;;;;;5.80;1.65;;;18.80;99.90;;;;;;5072445;28;20086;-77
2022/03/24 08:11:05;;;;;;;7.38;2.05;;;18.70;99.90;;;;;;5072963;28;20492;-77
2022/03/24 08:13:33;;;;;;;6.05;1.58;;;18.80;99.90;;;;;;5072781;28;20024;-78
2022/03/24 08:16:00;;;;;;;5.15;1.40;;;18.70;99.90;;;;;;5054998;28;20025;-77
2022/03/24 08:18:28;;;;;;;6.28;2.08;;;18.60;99.90;;;;;;5073254;28;20035;-78
2022/03/24 08:20:55;;;;;;;5.50;2.03;;;18.50;99.90;;;;;;5055109;28;20039;-78
2022/03/24 08:23:23;;;;;;;7.78;1.60;;;18.50;99.90;;;;;;5072804;28;20390;-77
2022/03/24 08:25:51;;;;;;;5.82;1.52;;;18.50;99.90;;;;;;5038275;28;20032;-76
2022/03/24 08:28:19;;;;;;;7.75;2.00;;;18.40;99.90;;;;;;5055266;28;20017;-79
2022/03/24 08:30:46;;;;;;;5.05;1.60;;;18.40;99.90;;;;;;5074786;28;20423;-78
2022/03/24 08:33:14;;;;;;;5.95;1.65;;;18.40;99.90;;;;;;5055711;28;20480;-79
2022/03/24 08:35:42;;;;;;;8.52;1.70;;;18.40;99.90;;;;;;5073349;28;20027;-78
2022/03/24 08:38:13;;;;;;;5.85;1.67;;;18.40;99.90;;;;;;5054955;28;20473;-79
2022/03/24 08:40:40;;;;;;;4.40;1.73;;;18.30;99.90;;;;;;5055190;28;20047;-78
2022/03/24 08:43:08;;;;;;;5.00;1.73;;;18.20;99.90;;;;;;5072994;28;20150;-78
2022/03/24 08:45:37;;;;;;;5.95;1.70;;;18.20;99.90;;;;;;5055381;28;20134;-80
2022/03/24 08:48:06;;;;;;;5.38;2.20;;;18.10;99.90;;;;;;5073941;28;20028;-78
2022/03/24 08:50:34;;;;;;;5.57;2.00;;;18.00;99.90;;;;;;5054893;28;20021;-77
2022/03/24 08:53:03;;;;;;;7.50;2.20;;;18.00;99.90;;;;;;5054789;28;20050;-78
2022/03/24 08:55:34;;;;;;;5.43;2.00;;;18.00;99.90;;;;;;5072410;28;20036;-78
2022/03/24 08:58:04;;;;;;;7.28;2.00;;;18.00;99.90;;;;;;5072555;28;20043;-77
2022/03/24 09:00:32;;;;;;;5.18;2.08;;;18.00;99.90;;;;;;5072412;28;20128;-76
2022/03/24 09:02:59;;;;;;;8.20;2.25;;;18.00;99.90;;;;;;5054243;28;20032;-76
2022/03/24 09:05:26;;;;;;;7.88;2.60;;;18.00;99.90;;;;;;5072148;28;20021;-77
2022/03/24 09:07:55;;;;;;;4.57;1.67;;;18.10;99.90;;;;;;5072221;28;20140;-77
2022/03/24 09:10:22;;;;;;;5.45;2.22;;;18.20;99.90;;;;;;5053509;28;20443;-77
2022/03/24 09:12:50;;;;;;;5.05;1.77;;;18.30;99.90;;;;;;5072191;28;20024;-77
2022/03/24 09:15:19;;;;;;;9.85;2.47;;;18.30;99.90;;;;;;5054092;28;20031;-78
2022/03/24 09:17:47;;;;;;;5.20;1.95;;;18.20;99.90;;;;;;5054221;28;20392;-78
2022/03/24 09:20:18;;;;;;;5.90;2.45;;;18.20;99.90;;;;;;5072140;28;20017;-78
2022/03/24 09:22:47;;;;;;;4.57;1.48;;;18.20;99.90;;;;;;5054286;28;20032;-78
2022/03/24 09:25:16;;;;;;;4.75;1.88;;;18.20;99.90;;;;;;5072601;28;20381;-78
2022/03/24 09:27:45;;;;;;;4.90;1.70;;;18.20;99.90;;;;;;5054495;28;20024;-78
2022/03/24 09:30:15;;;;;;;4.75;1.77;;;18.30;99.90;;;;;;5075888;28;20469;-78
2022/03/24 09:32:45;;;;;;;3.88;1.60;;;18.20;99.90;;;;;;5076574;28;20020;-78
2022/03/24 09:35:13;;;;;;;4.40;1.83;;;18.30;99.90;;;;;;5076179;28;20025;-78
2022/03/24 09:37:41;;;;;;;6.35;1.80;;;18.30;99.90;;;;;;5076635;28;20261;-79
2022/03/24 09:40:11;;;;;;;6.00;2.05;;;18.40;99.90;;;;;;5058156;28;20024;-80
2022/03/24 09:42:39;;;;;;;6.35;1.42;;;18.50;99.90;;;;;;5043069;28;20052;-79
2022/03/24 09:45:09;;;;;;;5.40;1.90;;;18.40;99.90;;;;;;5077267;28;20017;-79
2022/03/24 09:47:37;;;;;;;5.05;1.60;;;18.40;99.90;;;;;;5058921;28;20017;-81
2022/03/24 09:50:05;;;;;;;5.78;1.60;;;18.40;99.90;;;;;;5057616;28;20092;-79
2022/03/24 09:52:33;;;;;;;5.63;1.95;;;18.40;99.90;;;;;;5076091;28;20397;-80
2022/03/24 09:55:01;;;;;;;4.43;2.00;;;18.40;99.90;;;;;;5076347;28;20052;-79
2022/03/24 09:57:28;;;;;;;4.55;1.80;;;18.40;99.90;;;;;;5058124;28;20115;-79
2022/03/24 09:59:56;;;;;;;3.50;1.58;;;18.40;99.90;;;;;;5075873;28;20425;-79
2022/03/24 10:02:24;;;;;;;3.90;1.60;;;18.40;99.90;;;;;;5058593;28;20046;-79
2022/03/24 10:04:52;;;;;;;2.72;1.50;;;18.50;99.90;;;;;;5077237;28;20063;-79
2022/03/24 10:07:25;;;;;;;3.15;1.77;;;18.40;99.90;;;;;;5059450;28;20028;-80
2022/03/24 10:09:55;;;;;;;4.72;1.75;;;18.50;99.90;;;;;;5058741;28;20040;-79
2022/03/24 10:12:37;;;;;;;3.85;1.30;;;18.60;99.90;;;;;;5058446;28;20051;-80
2022/03/24 10:15:05;;;;;;;3.80;1.85;;;18.60;99.90;;;;;;5076756;28;20025;-79
2022/03/24 10:17:36;;;;;;;3.13;1.30;;;18.60;99.90;;;;;;5074886;28;20035;-79
2022/03/24 10:20:05;;;;;;;3.05;1.85;;;18.60;99.90;;;;;;5075122;28;20148;-79
2022/03/24 10:22:34;;;;;;;3.13;1.40;;;18.60;99.90;;;;;;5075107;28;20440;-79
2022/03/24 10:25:06;;;;;;;4.35;1.63;;;18.60;99.90;;;;;;5075382;28;20024;-78
2022/03/24 10:27:33;;;;;;;4.10;1.60;;;18.60;99.90;;;;;;5057091;28;20052;-78
2022/03/24 10:30:01;;;;;;;4.13;1.83;;;18.60;99.90;;;;;;5075106;28;20016;-79
2022/03/24 10:32:31;;;;;;;3.88;1.50;;;18.60;99.90;;;;;;5075031;28;20394;-79
2022/03/24 10:35:10;;;;;;;4.22;1.80;;;18.60;99.90;;;;;;5057041;28;20393;-78
2022/03/24 10:37:38;;;;;;;3.38;1.50;;;18.60;99.90;;;;;;5075009;28;20416;-79
2022/03/24 10:40:11;;;;;;;2.80;1.45;;;18.60;99.90;;;;;;5074757;28;20055;-78
2022/03/24 10:42:41;;;;;;;3.72;1.40;;;18.60;99.90;;;;;;5075491;28;20489;-80
2022/03/24 10:45:15;;;;;;;3.10;1.25;;;18.50;99.90;;;;;;5075076;28;20105;-79
2022/03/24 10:47:45;;;;;;;2.50;1.45;;;18.50;99.90;;;;;;5056931;28;20119;-79
2022/03/24 10:50:26;;;;;;;3.05;1.40;;;18.50;99.90;;;;;;5056933;28;20395;-79
2022/03/24 10:52:57;;;;;;;4.82;1.45;;;18.50;99.90;;;;;;5056692;28;20036;-78
2022/03/24 10:55:42;;;;;;;;;;;18.50;99.90;;;;;;5075290;28;20020;-78
2022/03/24 10:58:20;;;;;;;3.70;1.33;;;18.50;99.90;;;;;;5074454;28;19912;-78
2022/03/24 11:00:51;;;;;;;2.08;1.10;;;18.50;99.90;;;;;;5074575;28;20121;-77
2022/03/24 11:03:19;;;;;;;3.58;1.13;;;18.50;99.90;;;;;;5056251;28;20025;-78
2022/03/24 11:05:47;;;;;;;2.88;1.25;;;18.50;99.90;;;;;;5074402;28;20025;-78
2022/03/24 11:08:20;;;;;;;3.08;1.20;;;18.40;99.90;;;;;;5074175;28;20016;-78
2022/03/24 11:10:49;;;;;;;3.03;1.35;;;18.40;99.90;;;;;;5056390;28;20056;-78
2022/03/24 11:13:40;;;;;;;3.13;1.40;;;18.50;99.90;;;;;;5056265;28;20182;-78
2022/03/24 11:16:10;;;;;;;3.90;1.15;;;18.50;99.90;;;;;;5056321;28;20091;-79
2022/03/24 11:18:38;;;;;;;3.90;1.40;;;18.50;99.90;;;;;;5056540;28;20021;-79
2022/03/24 11:21:44;;;;;;;2.97;1.40;;;18.60;99.90;;;;;;5074247;28;20107;-80
2022/03/24 11:24:11;;;;;;;3.63;1.50;;;18.50;99.90;;;;;;5045078;28;20495;-79
2022/03/24 11:26:39;;;;;;;2.45;1.20;;;18.60;99.90;;;;;;5075473;28;20051;-79
2022/03/24 11:29:06;;;;;;;4.20;1.50;;;18.60;99.90;;;;;;5056039;28;20028;-79
2022/03/24 11:31:33;;;;;;;4.55;1.35;;;18.50;99.90;;;;;;5073925;28;20013;-80
2022/03/24 11:34:04;;;;;;;2.80;1.35;;;18.50;99.90;;;;;;5055931;28;20177;-79
2022/03/24 11:36:32;;;;;;;4.13;1.42;;;18.60;99.90;;;;;;5055779;28;20029;-78
2022/03/24 11:39:04;;;;;;;2.50;1.20;;;18.60;99.90;;;;;;5073756;28;20028;-79
2022/03/24 11:41:53;;;;;;;3.75;1.42;;;18.60;99.90;;;;;;5055645;28;20025;-78
2022/03/24 11:44:53;;;;;;;2.65;1.20;;;18.60;99.90;;;;;;5055641;28;20051;-78
2022/03/24 11:47:24;;;;;;;3.50;1.20;;;18.60;99.90;;;;;;5073523;28;20020;-78
2022/03/24 11:50:09;;;;;;;3.78;1.10;;;18.60;99.90;;;;;;5073284;28;20438;-79
2022/03/24 11:52:37;;;;;;;2.22;0.90;;;18.60;99.90;;;;;;5073341;28;20056;-78
2022/03/24 11:55:14;;;;;;;2.58;1.10;;;18.60;99.90;;;;;;5073344;28;20021;-79
2022/03/24 11:57:42;;;;;;;3.15;1.38;;;18.60;99.90;;;;;;5055429;28;20056;-78
2022/03/24 12:00:15;;;;;;;3.17;1.50;;;18.60;99.90;;;;;;5055374;28;20038;-78
2022/03/24 12:02:52;;;;;;;2.13;1.20;;;18.60;99.90;;;;;;5073215;28;20476;-78
2022/03/24 12:05:19;;;;;;;3.20;1.20;;;18.60;99.90;;;;;;5073091;28;20485;-79
2022/03/24 12:07:46;;;;;;;2.67;1.00;;;18.60;99.90;;;;;;5055129;28;20370;-78
2022/03/24 12:10:29;;;;;;;2.92;1.10;;;18.70;99.90;;;;;;5054889;28;20113;-78
2022/03/24 12:13:21;;;;;;;2.40;1.00;;;18.70;99.90;;;;;;5054995;28;20024;-79
2022/03/24 12:16:13;;;;;;;1.80;1.00;;;18.70;99.90;;;;;;5073000;28;20266;-78
2022/03/24 12:18:42;;;;;;;1.73;1.20;;;18.70;99.90;;;;;;5055162;28;20028;-77
2022/03/24 12:21:19;;;;;;;4.07;1.33;;;18.70;99.90;;;;;;5072778;28;20032;-78
2022/03/24 12:24:08;;;;;;;3.55;1.40;;;18.60;99.90;;;;;;5054730;28;20028;-78
2022/03/24 12:26:47;;;;;;;5.25;1.35;;;18.70;99.90;;;;;;5054711;28;20023;-76
2022/03/24 12:29:20;;;;;;;2.75;1.27;;;18.70;99.90;;;;;;5054778;28;20393;-77
2022/03/24 12:32:01;;;;;;;4.00;1.75;;;18.60;99.90;;;;;;5072668;28;20103;-77
2022/03/24 12:34:44;;;;;;;3.22;1.40;;;18.60;99.90;;;;;;5072704;28;20071;-77
2022/03/24 12:37:38;;;;;;;3.28;1.85;;;18.60;99.90;;;;;;5054722;28;20485;-77
2022/03/24 12:40:06;;;;;;;5.05;1.73;;;18.60;99.90;;;;;;5072603;28;20099;-75
2022/03/24 12:42:45;;;;;;;3.67;1.15;;;18.70;99.90;;;;;;5072470;28;20111;-76
2022/03/24 12:45:36;;;;;;;3.30;1.33;;;18.60;99.90;;;;;;5054482;28;20021;-76
2022/03/24 12:48:12;;;;;;;4.43;1.58;;;18.70;99.90;;;;;;5072487;28;20027;-76
2022/03/24 12:50:42;;;;;;;3.03;1.33;;;18.70;99.90;;;;;;5072342;28;20021;-76
2022/03/24 12:53:10;;;;;;;5.53;1.50;;;18.70;99.90;;;;;;5054450;28;20043;-77
2022/03/24 12:55:43;;;;;;;4.63;1.60;;;18.70;99.90;;;;;;5072333;28;20031;-77
2022/03/24 12:58:19;;;;;;;3.33;1.42;;;18.70;99.90;;;;;;5072326;28;20033;-77
2022/03/24 13:00:51;;;;;;;2.88;1.45;;;18.70;99.90;;;;;;5054256;28;20495;-77